METAR Data
IDs: Format: Raw Decoded Include TAF

Data at: 2056 UTC 15 Oct 2018

METAR for:KSGH (Springfield Muni, OH, US)
Text:KSGH 151956Z AUTO 29012KT 10SM SCT017 OVC024 11/08 A3011 RMK AO2 RAB11E21 SLP201 P0000 T01060078 $
Temperature: 10.6°C ( 51°F)
Dewpoint: 7.8°C ( 46°F) [RH = 83%]
Pressure (altimeter):30.11 inches Hg (1019.7 mb) [Sea level pressure: 1020.1 mb]
Winds:from the WNW (290 degrees) at 14 MPH (12 knots; 6.2 m/s)
Visibility:10 or more sm (16+ km)
Ceiling:2400 feet AGL
Clouds: scattered clouds at 1700 feet AGL, overcast cloud deck at 2400 feet AGL
QC Flag:automated observation with no human augmentation; SOME DATA ABOVE MAY BE INACCURATE!!!"$" is an indication the sensor requires maintenance.